createdAt,value
2022-08-02T00:00:55.711Z,77.60
2022-08-02T00:03:23.381Z,76.20
2022-08-02T00:05:53.416Z,76.30
2022-08-02T00:08:21.258Z,76.30
2022-08-02T00:10:48.251Z,76.30
2022-08-02T00:13:15.100Z,76.40
2022-08-02T00:15:41.811Z,76.90
2022-08-02T00:18:08.547Z,76.20
2022-08-02T00:20:35.264Z,77.40
2022-08-02T00:23:02.048Z,77.70
2022-08-02T00:25:28.779Z,74.80
2022-08-02T00:27:55.496Z,77.60
2022-08-02T00:30:22.222Z,77.60
2022-08-02T00:32:48.921Z,76.10
2022-08-02T00:35:15.655Z,76.40
2022-08-02T00:37:42.479Z,77.20
2022-08-02T00:40:09.740Z,76.30
2022-08-02T00:42:36.435Z,76.40
2022-08-02T00:45:03.212Z,76.40
2022-08-02T00:47:30.063Z,76.30
2022-08-02T00:49:56.775Z,76.40
2022-08-02T00:52:23.952Z,76.30
2022-08-02T00:54:50.736Z,76.40
2022-08-02T00:57:17.447Z,76.30
2022-08-02T00:59:44.219Z,77.80
2022-08-02T01:02:11.784Z,76.40
2022-08-02T01:04:38.848Z,76.30
2022-08-02T01:07:12.991Z,76.30
2022-08-02T01:09:44.289Z,76.40
2022-08-02T01:12:11.820Z,76.40
2022-08-02T01:14:40.814Z,76.40
2022-08-02T01:17:14.208Z,76.50
2022-08-02T01:19:51.461Z,76.40
2022-08-02T01:23:00.155Z,76.70
2022-08-02T01:25:27.285Z,76.50
2022-08-02T01:28:03.237Z,76.50
2022-08-02T01:30:32.040Z,76.70
2022-08-02T01:33:00.141Z,77.60
2022-08-02T01:35:50.479Z,76.60
2022-08-02T01:38:21.943Z,76.60
2022-08-02T01:40:49.835Z,76.50
2022-08-02T01:43:17.408Z,76.40
2022-08-02T01:45:45.114Z,76.40
2022-08-02T01:48:12.563Z,76.40
2022-08-02T01:50:39.569Z,76.40
2022-08-02T01:53:08.873Z,76.50
2022-08-02T01:55:56.914Z,76.30
2022-08-02T01:58:27.369Z,77.70
2022-08-02T02:00:56.655Z,78.00
2022-08-02T02:03:25.185Z,76.30
2022-08-02T02:05:53.160Z,75.60
2022-08-02T02:08:27.082Z,76.20
2022-08-02T02:10:56.111Z,76.30
2022-08-02T02:13:33.281Z,77.70
2022-08-02T02:16:03.036Z,77.70
2022-08-02T02:18:30.758Z,76.30
2022-08-02T02:20:57.619Z,76.20
2022-08-02T02:23:25.819Z,76.10
2022-08-02T02:25:55.758Z,76.70
2022-08-02T02:28:30.302Z,76.30
2022-08-02T02:31:14.139Z,76.30
2022-08-02T02:33:44.842Z,76.20
2022-08-02T02:36:12.034Z,76.20
2022-08-02T02:38:39.832Z,76.70
2022-08-02T02:41:07.099Z,76.30
2022-08-02T02:43:34.550Z,76.40
2022-08-02T02:46:03.591Z,76.50
2022-08-02T02:48:30.873Z,76.20
2022-08-02T02:50:57.795Z,76.30
2022-08-02T02:53:25.075Z,76.30
2022-08-02T02:56:01.956Z,76.30
2022-08-02T02:58:30.132Z,76.40
2022-08-02T03:01:16.205Z,76.30
2022-08-02T03:03:44.967Z,76.30
2022-08-02T03:06:15.109Z,76.40
2022-08-02T03:08:42.816Z,76.30
2022-08-02T03:11:10.118Z,76.40
2022-08-02T03:13:37.602Z,76.40
2022-08-02T03:16:04.650Z,76.40
2022-08-02T03:18:39.094Z,76.30
2022-08-02T03:21:07.436Z,76.40
2022-08-02T03:23:34.888Z,76.40
2022-08-02T03:26:01.763Z,76.40
2022-08-02T03:28:28.583Z,76.40
2022-08-02T03:30:55.270Z,76.30
2022-08-02T03:33:22.410Z,76.30
2022-08-02T03:35:50.253Z,76.40
2022-08-02T03:38:18.726Z,76.40
2022-08-02T03:40:46.392Z,76.80
2022-08-02T03:43:13.856Z,76.40
2022-08-02T03:45:43.087Z,76.50
2022-08-02T03:48:34.340Z,76.40
2022-08-02T03:50:57.708Z,76.70
2022-08-02T03:53:24.922Z,76.40
2022-08-02T03:55:51.799Z,76.40
2022-08-02T03:58:19.463Z,76.40
2022-08-02T04:00:46.643Z,77.00
2022-08-02T04:03:16.996Z,76.30
2022-08-02T04:06:03.936Z,76.40
2022-08-02T04:08:37.000Z,76.40
2022-08-02T04:11:23.361Z,76.40
2022-08-02T04:13:50.186Z,76.40
2022-08-02T04:16:21.583Z,76.30
2022-08-02T04:18:58.800Z,76.10
2022-08-02T04:21:26.890Z,75.80
2022-08-02T04:24:18.993Z,77.30
2022-08-02T04:26:48.808Z,76.80
2022-08-02T04:29:18.152Z,75.50
2022-08-02T04:31:45.303Z,75.40
2022-08-02T04:34:15.199Z,77.70
2022-08-02T04:36:42.607Z,75.90
2022-08-02T04:39:09.275Z,75.50
2022-08-02T04:41:44.070Z,75.40
2022-08-02T04:44:11.189Z,75.50
2022-08-02T04:46:37.989Z,75.50
2022-08-02T04:49:05.176Z,75.60
2022-08-02T04:51:38.033Z,75.50
2022-08-02T04:54:09.170Z,75.60
2022-08-02T04:56:37.555Z,75.70
2022-08-02T04:59:04.255Z,76.40
2022-08-02T05:01:31.055Z,75.70
2022-08-02T05:03:57.899Z,75.60
2022-08-02T05:06:24.568Z,76.70
2022-08-02T05:08:52.911Z,75.70
2022-08-02T05:11:20.312Z,75.70
2022-08-02T05:13:57.609Z,75.70
2022-08-02T05:16:31.633Z,75.80
2022-08-02T05:19:02.086Z,76.20
2022-08-02T05:21:29.584Z,76.20
2022-08-02T05:23:56.412Z,75.90
2022-08-02T05:26:23.140Z,75.90
2022-08-02T05:28:49.885Z,75.80
2022-08-02T05:31:16.592Z,75.90
2022-08-02T05:33:43.248Z,75.90
2022-08-02T05:36:09.977Z,76.00
2022-08-02T05:38:37.830Z,76.00
2022-08-02T05:41:05.541Z,76.00
2022-08-02T05:43:32.865Z,76.00
2022-08-02T05:45:59.971Z,76.40
2022-08-02T05:48:31.498Z,76.10
2022-08-02T05:51:05.371Z,76.10
2022-08-02T05:53:45.041Z,76.10
2022-08-02T05:56:30.447Z,76.10
2022-08-02T05:59:03.049Z,76.10
2022-08-02T06:01:34.830Z,76.30
2022-08-02T06:04:03.883Z,76.20
2022-08-02T06:06:32.371Z,76.20
2022-08-02T06:09:00.593Z,76.30
2022-08-02T06:11:33.338Z,76.40
2022-08-02T06:14:00.379Z,76.40
2022-08-02T06:16:32.545Z,77.00
2022-08-02T06:19:00.816Z,76.40
2022-08-02T06:22:35.268Z,76.40
2022-08-02T06:24:17.590Z,76.50
2022-08-02T06:26:44.712Z,76.50
2022-08-02T06:29:12.292Z,76.70
2022-08-02T06:31:40.945Z,77.60
2022-08-02T06:34:07.622Z,76.70
2022-08-02T06:36:42.207Z,76.70
2022-08-02T06:39:31.057Z,76.70
2022-08-02T06:41:59.080Z,76.70
2022-08-02T06:44:48.932Z,76.80
2022-08-02T06:47:13.557Z,76.70
2022-08-02T06:49:52.658Z,76.90
2022-08-02T06:52:30.365Z,77.00
2022-08-02T06:54:58.834Z,76.40
2022-08-02T06:57:25.771Z,76.40
2022-08-02T06:59:52.547Z,76.60
2022-08-02T07:02:19.239Z,76.70
2022-08-02T07:04:45.924Z,76.80
2022-08-02T07:07:12.669Z,76.50
2022-08-02T07:09:39.326Z,76.20
2022-08-02T07:12:22.736Z,76.00
2022-08-02T07:14:49.442Z,76.40
2022-08-02T07:17:16.222Z,76.60
2022-08-02T07:19:43.031Z,75.90
2022-08-02T07:22:10.057Z,76.00
2022-08-02T07:24:39.715Z,76.50
2022-08-02T07:27:11.667Z,76.60
2022-08-02T07:29:45.973Z,76.40
2022-08-02T07:32:15.352Z,76.10
2022-08-02T07:34:42.765Z,76.20
2022-08-02T07:37:25.636Z,76.50
2022-08-02T07:40:05.395Z,76.40
2022-08-02T07:42:34.412Z,76.30
2022-08-02T07:45:01.292Z,76.30
2022-08-02T07:47:28.166Z,76.40
2022-08-02T07:49:54.905Z,76.70
2022-08-02T07:52:21.548Z,76.20
2022-08-02T07:54:48.690Z,75.80
2022-08-02T07:57:15.417Z,76.20
2022-08-02T07:59:42.137Z,76.60
2022-08-02T08:02:09.254Z,76.60
2022-08-02T08:04:36.095Z,76.60
2022-08-02T08:07:04.726Z,76.60
2022-08-02T08:09:31.606Z,76.40
2022-08-02T08:11:58.355Z,76.40
2022-08-02T08:14:25.254Z,76.50
2022-08-02T08:16:51.931Z,76.90
2022-08-02T08:19:18.583Z,76.90
2022-08-02T08:21:45.290Z,76.90
2022-08-02T08:24:12.046Z,76.90
2022-08-02T08:26:39.963Z,76.80
2022-08-02T08:29:07.369Z,76.30
2022-08-02T08:31:36.622Z,76.20
2022-08-02T08:34:03.370Z,76.00
2022-08-02T08:36:30.899Z,75.80
2022-08-02T08:38:57.584Z,75.90
2022-08-02T08:41:24.292Z,76.20
2022-08-02T08:43:53.352Z,75.70
2022-08-02T08:46:27.239Z,75.90
2022-08-02T08:48:57.424Z,76.00
2022-08-02T08:51:24.873Z,76.10
2022-08-02T08:53:54.154Z,76.00
2022-08-02T08:56:20.879Z,76.00
2022-08-02T08:58:47.846Z,75.90
2022-08-02T09:01:16.817Z,75.90
2022-08-02T09:03:45.018Z,76.10
2022-08-02T09:06:11.804Z,75.90
2022-08-02T09:08:38.518Z,75.30
2022-08-02T09:11:12.258Z,75.70
2022-08-02T09:13:45.770Z,75.60
2022-08-02T09:16:14.549Z,75.40
2022-08-02T09:18:47.171Z,75.40
2022-08-02T09:21:17.533Z,75.80
2022-08-02T09:23:48.202Z,75.60
2022-08-02T09:26:16.028Z,75.70
2022-08-02T09:28:44.575Z,75.60
2022-08-02T09:31:11.251Z,75.40
2022-08-02T09:33:39.409Z,75.40
2022-08-02T09:36:08.324Z,75.20
2022-08-02T09:38:35.904Z,75.50
2022-08-02T09:41:02.957Z,75.60
2022-08-02T09:43:37.045Z,75.20
2022-08-02T09:46:17.223Z,74.90
2022-08-02T09:48:54.024Z,75.20
2022-08-02T09:51:26.654Z,75.50
2022-08-02T09:54:06.098Z,75.50
2022-08-02T09:56:45.618Z,75.80
2022-08-02T09:59:12.962Z,75.60
2022-08-02T10:01:39.811Z,75.50
2022-08-02T10:04:17.380Z,75.10
2022-08-02T10:06:49.282Z,75.70
2022-08-02T10:09:16.411Z,75.90
2022-08-02T10:11:43.164Z,75.80
2022-08-02T10:14:10.937Z,76.00
2022-08-02T10:16:38.582Z,75.90
2022-08-02T10:19:05.538Z,75.60
2022-08-02T10:21:35.332Z,76.00
2022-08-02T10:24:13.128Z,76.20
2022-08-02T10:26:40.911Z,76.30
2022-08-02T10:29:11.173Z,76.00
2022-08-02T10:31:47.258Z,76.10
2022-08-02T10:34:16.476Z,75.50
2022-08-02T10:36:43.731Z,75.80
2022-08-02T10:39:10.567Z,75.80
2022-08-02T10:41:44.670Z,76.00
2022-08-02T10:44:27.281Z,76.00
2022-08-02T10:47:15.246Z,75.70
2022-08-02T10:49:51.313Z,76.00
2022-08-02T10:52:18.803Z,76.10
2022-08-02T10:54:49.649Z,76.30
2022-08-02T10:57:24.261Z,75.70
2022-08-02T10:59:52.500Z,75.80
2022-08-02T11:02:35.948Z,76.10
2022-08-02T11:05:05.291Z,75.90
2022-08-02T11:07:33.483Z,75.70
2022-08-02T11:10:20.126Z,75.80
2022-08-02T11:13:04.456Z,76.20
2022-08-02T11:15:46.818Z,76.30
2022-08-02T11:18:13.523Z,76.40
2022-08-02T11:20:40.357Z,76.30
2022-08-02T11:23:44.861Z,76.00
2022-08-02T11:26:30.602Z,76.20
2022-08-02T11:29:01.774Z,76.00
2022-08-02T11:31:29.562Z,76.20
2022-08-02T11:33:56.243Z,76.10
2022-08-02T11:36:23.085Z,76.20
2022-08-02T11:38:50.002Z,74.80
2022-08-02T11:41:47.506Z,73.80
2022-08-02T11:44:09.930Z,73.90
2022-08-02T11:46:37.018Z,73.50
2022-08-02T11:49:14.606Z,72.80
2022-08-02T11:51:54.013Z,74.10
2022-08-02T11:54:28.374Z,74.40
2022-08-02T11:56:55.274Z,73.90
2022-08-02T11:59:22.242Z,76.40
2022-08-02T12:01:49.197Z,75.20
2022-08-02T12:04:16.965Z,75.10
2022-08-02T12:06:43.899Z,75.40
2022-08-02T12:09:17.835Z,75.80
2022-08-02T12:11:48.518Z,75.40
2022-08-02T12:14:15.170Z,75.70
2022-08-02T12:17:00.704Z,75.70
2022-08-02T12:19:27.900Z,75.80
2022-08-02T12:22:08.425Z,75.10
2022-08-02T12:24:35.571Z,75.70
2022-08-02T12:27:02.517Z,75.80
2022-08-02T12:29:58.573Z,75.90
2022-08-02T12:32:23.908Z,75.90
2022-08-02T12:35:00.656Z,76.20
2022-08-02T12:37:27.426Z,75.90
2022-08-02T12:39:54.123Z,76.10
2022-08-02T12:42:21.120Z,75.10
2022-08-02T12:44:54.634Z,75.00
2022-08-02T12:47:21.903Z,75.50
2022-08-02T12:50:07.524Z,77.20
2022-08-02T12:52:34.301Z,75.50
2022-08-02T12:55:01.001Z,75.60
2022-08-02T12:57:27.683Z,75.90
2022-08-02T12:59:54.408Z,76.00
2022-08-02T13:02:21.802Z,76.40
2022-08-02T13:04:49.898Z,75.90
2022-08-02T13:07:17.366Z,76.10
2022-08-02T13:09:48.384Z,75.90
2022-08-02T13:12:16.335Z,76.20
2022-08-02T13:14:46.303Z,76.00
2022-08-02T13:17:12.976Z,77.30
2022-08-02T13:19:40.937Z,76.30
2022-08-02T13:22:08.646Z,76.00
2022-08-02T13:24:56.244Z,74.80
2022-08-02T13:27:24.279Z,75.80
2022-08-02T13:29:51.084Z,73.50
2022-08-02T13:32:17.869Z,74.90
2022-08-02T13:34:44.657Z,75.10
2022-08-02T13:37:11.386Z,75.00
2022-08-02T13:39:38.196Z,74.50
2022-08-02T13:42:05.837Z,73.60
2022-08-02T13:44:32.937Z,74.60
2022-08-02T13:46:59.764Z,74.80
2022-08-02T13:49:49.557Z,73.70
2022-08-02T13:52:13.663Z,73.20
2022-08-02T13:54:40.615Z,74.80
2022-08-02T13:57:07.375Z,72.30
2022-08-02T13:59:56.938Z,71.30
2022-08-02T14:02:20.759Z,73.00
2022-08-02T14:04:47.414Z,71.50
2022-08-02T14:07:14.258Z,72.30
2022-08-02T14:09:40.946Z,71.40
2022-08-02T14:12:09.819Z,72.50
2022-08-02T14:14:36.767Z,72.80
2022-08-02T14:17:03.565Z,73.30
2022-08-02T14:19:30.278Z,74.40
2022-08-02T14:22:11.747Z,73.50
2022-08-02T14:24:39.620Z,73.70
2022-08-02T14:27:06.327Z,74.10
2022-08-02T14:29:33.008Z,74.40
2022-08-02T14:31:59.720Z,74.50
2022-08-02T14:34:26.366Z,74.50
2022-08-02T14:36:53.990Z,73.90
2022-08-02T14:39:21.030Z,73.90
2022-08-02T14:41:58.413Z,74.30
2022-08-02T14:44:27.896Z,74.50
2022-08-02T14:46:54.666Z,74.90
2022-08-02T14:49:25.825Z,74.40
2022-08-02T14:51:53.820Z,74.70
2022-08-02T14:54:20.511Z,74.60
2022-08-02T14:56:58.828Z,74.70
2022-08-02T14:59:25.579Z,74.60
2022-08-02T15:01:52.367Z,74.50
2022-08-02T15:04:19.079Z,75.00
2022-08-02T15:06:45.910Z,74.90
2022-08-02T15:09:13.666Z,74.90
2022-08-02T15:11:47.786Z,75.00
2022-08-02T15:14:16.109Z,74.90
2022-08-02T15:16:56.557Z,75.00
2022-08-02T15:19:29.490Z,75.10
2022-08-02T15:22:16.707Z,75.00
2022-08-02T15:24:46.127Z,74.90
2022-08-02T15:27:14.410Z,75.20
2022-08-02T15:29:42.299Z,75.50
2022-08-02T15:32:09.095Z,75.30
2022-08-02T15:34:35.961Z,74.80
2022-08-02T15:37:02.770Z,75.20
2022-08-02T15:39:29.428Z,75.10
2022-08-02T15:41:56.184Z,75.30
2022-08-02T15:44:23.500Z,75.50
2022-08-02T15:46:51.711Z,75.50
2022-08-02T15:49:20.412Z,75.30
2022-08-02T15:51:47.261Z,75.30
2022-08-02T15:54:13.978Z,75.40
2022-08-02T15:56:40.657Z,75.40
2022-08-02T15:59:07.324Z,75.30
2022-08-02T16:01:37.759Z,75.30
2022-08-02T16:04:06.398Z,75.40
2022-08-02T16:06:33.693Z,75.40
2022-08-02T16:09:00.388Z,75.50
2022-08-02T16:11:27.244Z,75.60
2022-08-02T16:13:54.632Z,75.70
2022-08-02T16:16:22.619Z,75.90
2022-08-02T16:18:49.377Z,75.80
2022-08-02T16:21:16.179Z,75.90
2022-08-02T16:23:58.646Z,75.80
2022-08-02T16:26:29.626Z,75.80
2022-08-02T16:28:57.144Z,76.00
2022-08-02T16:31:24.053Z,76.00
2022-08-02T16:33:50.860Z,75.90
2022-08-02T16:36:24.019Z,76.00
2022-08-02T16:38:50.738Z,76.10
2022-08-02T16:41:17.398Z,76.20
2022-08-02T16:43:44.092Z,76.10
2022-08-02T16:46:10.745Z,76.20
2022-08-02T16:48:37.590Z,76.20
2022-08-02T16:51:04.779Z,76.10
2022-08-02T16:54:00.454Z,76.10
2022-08-02T16:56:28.170Z,76.10
2022-08-02T16:58:55.240Z,76.20
2022-08-02T17:01:27.444Z,76.20
2022-08-02T17:03:56.422Z,76.20
2022-08-02T17:06:26.208Z,76.20
2022-08-02T17:08:55.117Z,76.30
2022-08-02T17:11:23.681Z,76.30
2022-08-02T17:13:51.361Z,76.40
2022-08-02T17:16:20.623Z,76.50
2022-08-02T17:18:54.019Z,76.50
2022-08-02T17:21:21.430Z,76.30
2022-08-02T17:24:04.994Z,76.50
2022-08-02T17:26:35.347Z,76.20
2022-08-02T17:29:16.318Z,76.40
2022-08-02T17:32:04.854Z,76.60
2022-08-02T17:34:31.990Z,76.50
2022-08-02T17:37:00.130Z,76.50
2022-08-02T17:39:33.821Z,76.60
2022-08-02T17:42:01.377Z,77.20
2022-08-02T17:44:37.262Z,76.60
2022-08-02T17:47:06.619Z,76.70
2022-08-02T17:49:33.490Z,76.60
2022-08-02T17:52:47.960Z,76.70
2022-08-02T17:54:48.429Z,76.60
2022-08-02T17:57:15.549Z,76.60
2022-08-02T18:00:03.942Z,76.70
2022-08-02T18:02:31.604Z,76.90
2022-08-02T18:04:58.243Z,77.20
2022-08-02T18:07:25.416Z,77.00
2022-08-02T18:09:56.726Z,77.00
2022-08-02T18:12:26.521Z,77.00
2022-08-02T18:14:54.468Z,77.10
2022-08-02T18:17:21.191Z,77.10
2022-08-02T18:19:57.327Z,77.10
2022-08-02T18:22:26.866Z,77.80
2022-08-02T18:24:53.879Z,77.20
2022-08-02T18:27:20.732Z,77.30
2022-08-02T18:29:47.457Z,77.20
2022-08-02T18:33:55.283Z,77.30
2022-08-02T18:35:14.123Z,77.20
2022-08-02T18:37:42.703Z,77.20
2022-08-02T18:40:12.460Z,76.90
2022-08-02T18:42:39.182Z,76.90
2022-08-02T18:45:06.899Z,77.20
2022-08-02T18:47:33.665Z,76.10
2022-08-02T18:50:02.724Z,73.60
2022-08-02T18:52:30.859Z,73.20
2022-08-02T18:54:58.440Z,72.80
2022-08-02T18:58:18.803Z,71.70
2022-08-02T19:00:13.654Z,71.60
2022-08-02T19:02:40.719Z,72.50
2022-08-02T19:05:07.720Z,72.30
2022-08-02T19:07:50.705Z,72.60
2022-08-02T19:10:19.686Z,72.30
2022-08-02T19:12:46.399Z,72.60
2022-08-02T19:15:18.527Z,72.80
2022-08-02T19:17:54.507Z,72.90
2022-08-02T19:20:24.089Z,73.30
2022-08-02T19:22:53.566Z,73.50
2022-08-02T19:25:20.942Z,73.80
2022-08-02T19:27:54.824Z,73.80
2022-08-02T19:30:22.245Z,73.80
2022-08-02T19:32:59.404Z,73.90
2022-08-02T19:35:30.410Z,73.90
2022-08-02T19:38:06.139Z,74.10
2022-08-02T19:40:32.979Z,74.20
2022-08-02T19:44:23.174Z,74.20
2022-08-02T19:45:50.669Z,74.20
2022-08-02T19:48:23.963Z,74.10
2022-08-02T19:50:52.727Z,74.10
2022-08-02T19:53:19.448Z,74.10
2022-08-02T19:56:00.260Z,74.10
2022-08-02T19:58:30.369Z,74.10
2022-08-02T20:00:57.733Z,74.10
2022-08-02T20:03:50.854Z,74.20
2022-08-02T20:06:13.687Z,74.20
2022-08-02T20:08:40.723Z,74.30
2022-08-02T20:11:19.936Z,74.20
2022-08-02T20:13:50.382Z,74.20
2022-08-02T20:16:20.846Z,74.30
2022-08-02T20:18:55.831Z,74.20
2022-08-02T20:21:34.114Z,74.30
2022-08-02T20:24:02.011Z,74.30
2022-08-02T20:26:30.489Z,74.50
2022-08-02T20:29:02.816Z,74.50
2022-08-02T20:31:29.807Z,74.60
2022-08-02T20:33:57.040Z,74.60
2022-08-02T20:36:24.560Z,75.50
2022-08-02T20:38:51.350Z,74.90
2022-08-02T20:41:21.644Z,74.90
2022-08-02T20:43:49.092Z,74.90
2022-08-02T20:46:15.947Z,74.90
2022-08-02T20:48:44.331Z,74.90
2022-08-02T20:51:12.565Z,75.00
2022-08-02T20:53:54.669Z,75.00
2022-08-02T20:56:22.136Z,75.00
2022-08-02T20:58:52.314Z,75.20
2022-08-02T21:01:21.361Z,75.10
2022-08-02T21:03:58.627Z,75.20
2022-08-02T21:06:28.153Z,75.10
2022-08-02T21:08:55.439Z,75.00
2022-08-02T21:11:25.618Z,75.10
2022-08-02T21:14:07.610Z,75.10
2022-08-02T21:16:47.378Z,75.10
2022-08-02T21:19:14.148Z,75.10
2022-08-02T21:21:41.142Z,75.10
2022-08-02T21:24:07.871Z,75.10
2022-08-02T21:26:39.122Z,75.00
2022-08-02T21:29:07.080Z,75.00
2022-08-02T21:31:36.012Z,75.10
2022-08-02T21:34:19.252Z,75.00
2022-08-02T21:36:48.887Z,75.60
2022-08-02T21:39:17.277Z,74.80
2022-08-02T21:41:46.374Z,74.90
2022-08-02T21:44:15.905Z,74.90
2022-08-02T21:46:44.537Z,74.90
2022-08-02T21:49:12.529Z,74.70
2022-08-02T21:51:43.089Z,74.80
2022-08-02T21:54:18.444Z,74.70
2022-08-02T21:56:48.207Z,74.70
2022-08-02T21:59:17.008Z,75.30
2022-08-02T22:01:52.800Z,74.60
2022-08-02T22:04:21.211Z,74.70
2022-08-02T22:09:42.839Z,75.80
2022-08-02T22:12:18.347Z,74.80
2022-08-02T22:14:53.752Z,74.80
2022-08-02T22:17:51.160Z,74.80
2022-08-02T22:20:15.337Z,74.80
2022-08-02T22:22:42.478Z,74.90
2022-08-02T22:25:10.061Z,74.80
2022-08-02T22:28:35.149Z,75.50
2022-08-02T22:30:35.313Z,74.80
2022-08-02T22:33:20.620Z,74.80
2022-08-02T22:35:47.359Z,74.80
2022-08-02T22:38:18.378Z,74.70
2022-08-02T22:40:46.599Z,74.70
2022-08-02T22:43:22.549Z,74.70
2022-08-02T22:45:50.295Z,74.60
2022-08-02T22:48:17.130Z,74.70
2022-08-02T22:50:43.816Z,74.70
2022-08-02T22:53:10.645Z,74.70
2022-08-02T22:55:41.624Z,74.60
2022-08-02T22:58:08.673Z,74.70
2022-08-02T22:59:04.101Z,74.70
2022-08-02T23:00:35.459Z,74.60
2022-08-02T23:03:02.154Z,74.60
2022-08-02T23:05:30.053Z,74.60
2022-08-02T23:07:56.815Z,74.60
2022-08-02T23:10:23.749Z,74.60
2022-08-02T23:12:50.432Z,74.60
2022-08-02T23:15:17.184Z,74.60
2022-08-02T23:18:02.711Z,74.60
2022-08-02T23:20:29.428Z,74.60
2022-08-02T23:22:56.188Z,74.60
2022-08-02T23:25:23.166Z,74.70
2022-08-02T23:27:51.289Z,74.70
2022-08-02T23:30:18.581Z,74.60
2022-08-02T23:32:47.715Z,74.70
2022-08-02T23:35:16.597Z,74.70
2022-08-02T23:37:58.941Z,74.70
2022-08-02T23:40:40.518Z,74.70
2022-08-02T23:43:12.498Z,73.40
2022-08-02T23:45:41.412Z,74.70
2022-08-02T23:48:08.084Z,74.70
2022-08-02T23:50:34.796Z,74.80
2022-08-02T23:53:01.456Z,74.80
2022-08-02T23:55:28.148Z,74.80
2022-08-02T23:57:54.855Z,74.90
